Time;durP1;ratioP1;P1;durP2;ratioP2;P2;SDS_P1;SDS_P2;PMS_P1;PMS_P2;Temp;Humidity;BMP_temperature;BMP_pressure;BME280_temperature;BME280_humidity;BME280_pressure;Samples;Min_cycle;Max_cycle;Signal;HPM_P1;HPM_P2
2022/05/30 00:01:07;;;;;;;6.30;3.63;;;9.50;86.50;;;;;;5032272;28;20464;-74
2022/05/30 00:03:34;;;;;;;9.13;3.17;;;9.50;86.00;;;;;;5038282;28;20443;-72
2022/05/30 00:06:00;;;;;;;4.37;2.90;;;9.50;85.70;;;;;;5041042;28;20852;-73
2022/05/30 00:08:26;;;;;;;5.63;3.47;;;9.40;85.90;;;;;;5036656;28;20519;-74
2022/05/30 00:10:52;;;;;;;5.30;3.00;;;9.40;85.70;;;;;;5047669;28;20192;-72
2022/05/30 00:13:18;;;;;;;6.07;3.23;;;9.30;85.90;;;;;;5039574;28;20308;-73
2022/05/30 00:15:44;;;;;;;4.00;2.73;;;9.20;86.20;;;;;;5036745;28;20557;-73
2022/05/30 00:18:12;;;;;;;4.50;3.50;;;9.20;86.30;;;;;;5046344;28;20322;-72
2022/05/30 00:20:43;;;;;;;4.43;3.10;;;9.10;86.30;;;;;;5061367;28;20503;-72
2022/05/30 00:23:09;;;;;;;5.20;3.30;;;9.10;86.60;;;;;;5051878;28;20469;-73
2022/05/30 00:25:35;;;;;;;5.90;4.00;;;9.00;86.90;;;;;;5046562;28;20889;-74
2022/05/30 00:28:00;;;;;;;4.20;3.20;;;9.00;87.00;;;;;;5038850;28;20189;-75
2022/05/30 00:30:26;;;;;;;5.70;3.73;;;8.90;87.30;;;;;;5043347;28;20199;-74
2022/05/30 00:32:52;;;;;;;5.30;3.40;;;8.90;87.60;;;;;;5037347;28;20670;-73
2022/05/30 00:35:18;;;;;;;5.17;3.87;;;8.80;87.70;;;;;;5039423;28;20315;-74
2022/05/30 00:37:43;;;;;;;7.60;4.07;;;8.70;88.00;;;;;;5035971;28;20226;-75
2022/05/30 00:40:10;;;;;;;8.53;4.60;;;8.70;88.40;;;;;;5038282;28;20835;-73
2022/05/30 00:42:36;;;;;;;5.30;3.37;;;8.60;88.70;;;;;;5032897;28;20212;-74
2022/05/30 00:45:02;;;;;;;8.00;4.57;;;8.60;88.90;;;;;;5040355;28;20772;-72
2022/05/30 00:47:27;;;;;;;6.00;3.80;;;8.60;89.00;;;;;;5042230;28;20267;-71
2022/05/30 00:49:54;;;;;;;7.33;3.93;;;8.50;89.20;;;;;;5039657;28;20576;-74
2022/05/30 00:52:34;;;;;;;8.00;3.83;;;8.50;89.30;;;;;;5038305;28;20218;-76
2022/05/30 00:55:10;;;;;;;7.70;3.93;;;8.50;89.50;;;;;;5040149;28;20841;-72
2022/05/30 00:57:37;;;;;;;8.40;4.03;;;8.40;89.50;;;;;;5040348;28;21036;-73
2022/05/30 01:00:18;;;;;;;5.23;3.67;;;8.20;89.70;;;;;;5040851;28;20599;-73
2022/05/30 01:02:44;;;;;;;6.43;3.80;;;8.20;89.90;;;;;;5037767;28;20494;-74
2022/05/30 01:07:59;;;;;;;6.17;4.03;;;8.10;90.10;;;;;;5036535;28;20429;-73
2022/05/30 01:10:25;;;;;;;7.03;3.87;;;8.10;90.40;;;;;;5035731;28;20960;-74
2022/05/30 01:12:55;;;;;;;6.67;4.60;;;8.10;90.50;;;;;;5043931;28;20407;-73
2022/05/30 01:15:26;;;;;;;6.13;4.10;;;8.10;90.60;;;;;;5037305;28;20205;-72
2022/05/30 01:18:00;;;;;;;7.63;4.40;;;8.10;90.80;;;;;;5036781;28;20923;-72
2022/05/30 01:20:31;;;;;;;5.93;3.83;;;8.10;90.90;;;;;;5034784;28;20416;-74
2022/05/30 01:23:35;;;;;;;10.30;5.40;;;8.10;91.00;;;;;;5039201;28;20427;-73
2022/05/30 01:26:31;;;;;;;9.10;5.23;;;8.20;91.00;;;;;;5040267;28;20466;-72
2022/05/30 01:29:20;;;;;;;6.27;4.40;;;8.10;90.90;;;;;;5030799;28;20454;-72
2022/05/30 01:31:45;;;;;;;7.03;4.53;;;8.00;90.90;;;;;;5040686;28;20419;-72
2022/05/30 01:34:11;;;;;;;8.20;5.00;;;8.00;91.20;;;;;;5037241;28;20481;-73
2022/05/30 01:36:37;;;;;;;8.03;5.20;;;8.00;91.30;;;;;;5038004;28;20189;-74
2022/05/30 01:39:03;;;;;;;6.37;4.40;;;8.00;91.20;;;;;;5037467;28;20941;-72
2022/05/30 01:41:29;;;;;;;9.70;5.10;;;8.00;91.20;;;;;;5037506;28;20208;-72
2022/05/30 01:43:55;;;;;;;7.83;4.50;;;8.00;91.20;;;;;;5034882;28;20434;-73
2022/05/30 01:46:23;;;;;;;6.70;4.67;;;8.00;91.20;;;;;;5038793;28;21187;-72
2022/05/30 01:48:49;;;;;;;7.97;4.80;;;8.10;91.30;;;;;;5038872;28;20234;-72
2022/05/30 01:51:17;;;;;;;8.87;4.70;;;8.10;91.20;;;;;;5039543;28;20498;-73
2022/05/30 01:53:43;;;;;;;9.17;4.83;;;8.00;91.20;;;;;;5036537;28;20479;-73
2022/05/30 01:56:09;;;;;;;6.97;4.97;;;7.90;91.50;;;;;;5044030;28;21074;-75
2022/05/30 01:58:35;;;;;;;6.70;3.90;;;7.90;91.40;;;;;;5041508;28;20942;-73
2022/05/30 02:01:18;;;;;;;5.83;3.87;;;7.80;91.20;;;;;;5044430;28;20682;-72
2022/05/30 02:03:49;;;;;;;6.97;3.80;;;7.80;90.90;;;;;;5042270;28;20511;-73
2022/05/30 02:06:15;;;;;;;5.03;3.60;;;7.80;90.80;;;;;;5040374;28;20545;-73
2022/05/30 02:08:41;;;;;;;8.87;6.00;;;7.70;90.50;;;;;;5046092;28;20934;-74
2022/05/30 02:11:08;;;;;;;6.23;3.63;;;7.60;90.40;;;;;;5037583;28;21128;-74
2022/05/30 02:13:35;;;;;;;8.03;4.20;;;7.40;91.10;;;;;;5052348;28;20485;-73
2022/05/30 02:18:50;;;;;;;6.10;4.20;;;7.30;91.30;;;;;;5044134;28;20406;-72
2022/05/30 02:21:16;;;;;;;7.70;4.37;;;7.30;91.30;;;;;;5040622;28;20454;-73
2022/05/30 02:23:42;;;;;;;5.80;3.97;;;7.30;91.30;;;;;;5041030;28;20235;-72
2022/05/30 02:26:08;;;;;;;5.10;3.70;;;7.30;91.20;;;;;;5041764;28;21108;-73
2022/05/30 02:28:34;;;;;;;8.43;3.80;;;7.20;90.80;;;;;;5049102;28;20423;-73
2022/05/30 02:31:00;;;;;;;5.23;3.83;;;7.20;90.70;;;;;;5050230;28;20423;-72
2022/05/30 02:38:54;;;;;;;4.90;3.80;;;7.00;91.90;;;;;;5041777;28;20507;-73
2022/05/30 02:41:19;;;;;;;10.10;5.17;;;7.00;92.20;;;;;;5044499;28;20499;-74
2022/05/30 02:43:46;;;;;;;6.30;4.93;;;6.90;92.30;;;;;;5043510;28;20184;-74
2022/05/30 02:46:13;;;;;;;7.97;4.70;;;7.00;92.30;;;;;;5036010;28;20594;-72
2022/05/30 02:48:38;;;;;;;8.80;5.93;;;7.00;92.40;;;;;;5044744;28;20423;-72
2022/05/30 02:51:04;;;;;;;6.30;4.83;;;7.00;92.30;;;;;;5053025;28;20428;-73
2022/05/30 02:53:30;;;;;;;10.37;4.70;;;7.00;92.30;;;;;;5046644;28;20429;-71
2022/05/30 02:55:57;;;;;;;8.07;5.10;;;7.00;92.40;;;;;;5049891;28;20228;-72
2022/05/30 02:58:22;;;;;;;10.03;4.50;;;7.10;92.50;;;;;;5045859;28;20678;-73
2022/05/30 03:00:48;;;;;;;7.70;5.07;;;7.10;92.30;;;;;;5044722;28;20470;-71
2022/05/30 03:03:14;;;;;;;10.60;5.57;;;7.10;92.20;;;;;;5041441;28;20177;-72
2022/05/30 03:05:39;;;;;;;8.10;5.20;;;7.10;91.80;;;;;;5048673;28;20606;-72
2022/05/30 03:08:07;;;;;;;7.27;5.17;;;7.10;91.80;;;;;;5048474;28;20188;-72
2022/05/30 03:10:33;;;;;;;9.20;4.87;;;7.10;91.80;;;;;;5039578;28;20185;-74
2022/05/30 03:12:59;;;;;;;6.70;4.87;;;7.20;91.80;;;;;;5039000;28;20933;-71
2022/05/30 03:15:25;;;;;;;8.33;5.40;;;7.20;91.80;;;;;;5045430;28;20453;-72
2022/05/30 03:17:51;;;;;;;8.03;5.67;;;7.20;91.40;;;;;;5036158;28;20955;-74
2022/05/30 03:20:21;;;;;;;6.70;4.70;;;7.10;91.60;;;;;;5039775;28;20415;-71
2022/05/30 03:22:48;;;;;;;9.30;5.07;;;7.20;91.70;;;;;;5039259;28;20468;-72
2022/05/30 03:25:15;;;;;;;6.30;5.37;;;7.20;91.50;;;;;;5038185;28;20456;-74
2022/05/30 03:27:41;;;;;;;7.07;5.20;;;7.20;91.50;;;;;;5036350;28;20783;-73
2022/05/30 03:30:07;;;;;;;11.70;5.60;;;7.10;91.50;;;;;;5036543;28;20502;-73
2022/05/30 03:32:33;;;;;;;9.43;6.47;;;7.10;91.70;;;;;;5036382;28;20930;-74
2022/05/30 03:34:59;;;;;;;9.90;5.80;;;7.10;91.70;;;;;;5040170;28;20490;-73
2022/05/30 03:37:26;;;;;;;6.53;5.03;;;7.10;91.70;;;;;;5042179;28;20196;-73
2022/05/30 03:39:52;;;;;;;7.90;5.97;;;7.10;91.60;;;;;;5043003;28;20469;-75
2022/05/30 03:42:17;;;;;;;7.90;5.30;;;7.10;91.50;;;;;;5043760;28;21141;-74
2022/05/30 03:44:43;;;;;;;11.40;5.90;;;7.00;91.70;;;;;;5040243;28;20223;-72
2022/05/30 03:47:09;;;;;;;8.57;5.40;;;7.00;91.80;;;;;;5045565;28;20207;-74
2022/05/30 03:49:36;;;;;;;7.80;5.40;;;7.00;91.90;;;;;;5035942;28;20423;-74
2022/05/30 03:52:02;;;;;;;9.87;6.00;;;7.00;91.80;;;;;;5045317;28;20418;-72
2022/05/30 03:54:28;;;;;;;8.83;5.67;;;7.00;91.80;;;;;;5034989;28;20496;-72
2022/05/30 03:56:54;;;;;;;11.17;6.40;;;7.00;91.90;;;;;;5044318;28;20411;-72
2022/05/30 03:59:20;;;;;;;7.97;5.23;;;6.90;92.00;;;;;;5036713;28;20427;-72
2022/05/30 04:01:46;;;;;;;7.40;5.30;;;6.90;92.10;;;;;;5041685;28;20204;-72
2022/05/30 04:04:14;;;;;;;9.13;5.50;;;7.00;92.30;;;;;;5030349;28;20268;-73
2022/05/30 04:06:41;;;;;;;6.93;5.57;;;7.00;92.20;;;;;;5042177;28;20189;-72
2022/05/30 04:09:07;;;;;;;9.80;5.87;;;7.00;92.30;;;;;;5037804;28;20415;-70
2022/05/30 04:11:35;;;;;;;9.63;4.83;;;7.10;92.20;;;;;;5041473;28;20424;-73
2022/05/30 04:14:00;;;;;;;8.87;5.73;;;7.10;92.00;;;;;;5037174;28;20422;-73
2022/05/30 04:16:26;;;;;;;10.87;4.87;;;7.20;91.80;;;;;;5037516;28;20456;-72
2022/05/30 04:18:52;;;;;;;11.63;5.70;;;7.10;91.40;;;;;;5035656;28;20239;-74
2022/05/30 04:21:18;;;;;;;11.83;6.20;;;7.20;91.30;;;;;;5038079;28;20669;-73
2022/05/30 04:23:43;;;;;;;7.43;5.10;;;7.10;91.00;;;;;;5046903;28;20180;-72
2022/05/30 04:26:15;;;;;;;7.80;5.80;;;7.00;91.10;;;;;;5040442;28;20235;-73
2022/05/30 04:28:41;;;;;;;9.60;6.47;;;7.00;91.20;;;;;;5045706;28;20188;-73
2022/05/30 04:31:09;;;;;;;7.80;5.23;;;6.90;91.10;;;;;;5041296;28;20420;-72
2022/05/30 04:33:35;;;;;;;11.57;5.30;;;6.90;91.20;;;;;;5038208;28;20185;-72
2022/05/30 04:36:04;;;;;;;10.07;5.90;;;6.90;91.20;;;;;;5039247;28;20459;-71
2022/05/30 04:38:30;;;;;;;9.90;5.70;;;7.00;91.30;;;;;;5045308;28;20423;-73
2022/05/30 04:40:56;;;;;;;9.37;6.03;;;7.10;91.50;;;;;;5039598;28;20463;-72
2022/05/30 04:43:23;;;;;;;8.83;5.60;;;7.20;91.40;;;;;;5040831;28;20431;-72
2022/05/30 04:46:04;;;;;;;11.30;5.57;;;7.30;91.10;;;;;;5039070;28;20197;-73
2022/05/30 04:48:30;;;;;;;11.30;6.20;;;7.50;90.70;;;;;;5050447;28;20496;-72
2022/05/30 04:50:56;;;;;;;10.70;6.27;;;7.50;90.50;;;;;;5053291;28;20450;-73
2022/05/30 04:53:22;;;;;;;12.93;6.47;;;7.60;90.50;;;;;;5055829;28;20185;-73
2022/05/30 04:55:47;;;;;;;10.60;6.10;;;7.60;90.50;;;;;;5039109;28;20205;-72
2022/05/30 04:58:13;;;;;;;10.50;6.20;;;7.60;90.80;;;;;;5041454;28;20201;-73
2022/05/30 05:00:39;;;;;;;12.37;6.80;;;7.60;91.00;;;;;;5042807;28;20219;-72
2022/05/30 05:03:04;;;;;;;9.13;6.70;;;7.70;91.20;;;;;;5048332;28;20184;-74
2022/05/30 05:05:30;;;;;;;11.17;6.97;;;7.80;91.30;;;;;;5035196;28;20374;-73
2022/05/30 05:08:05;;;;;;;10.30;7.03;;;7.90;91.20;;;;;;5042527;28;20196;-73
2022/05/30 05:10:44;;;;;;;10.27;6.53;;;8.00;91.00;;;;;;5041964;28;20209;-72
2022/05/30 05:13:10;;;;;;;11.63;6.47;;;8.10;90.90;;;;;;5036107;28;20465;-71
2022/05/30 05:15:36;;;;;;;12.03;6.37;;;8.20;90.50;;;;;;5036490;28;20484;-73
2022/05/30 05:18:03;;;;;;;11.77;7.00;;;8.40;90.30;;;;;;5035970;28;20188;-74
2022/05/30 05:20:29;;;;;;;17.87;8.57;;;8.50;89.90;;;;;;5037013;28;20666;-75
2022/05/30 05:22:55;;;;;;;11.73;7.97;;;8.50;89.20;;;;;;5044505;28;20491;-74
2022/05/30 05:25:21;;;;;;;21.20;8.03;;;8.50;89.20;;;;;;5047844;28;20459;-74
2022/05/30 05:27:50;;;;;;;12.10;7.33;;;8.50;89.30;;;;;;5049806;28;20411;-74
2022/05/30 05:30:16;;;;;;;20.80;8.23;;;8.60;89.50;;;;;;5047711;28;20893;-72
2022/05/30 05:32:42;;;;;;;18.03;8.80;;;8.60;89.30;;;;;;5042647;28;20562;-73
2022/05/30 05:35:09;;;;;;;13.20;8.03;;;8.70;89.30;;;;;;5043226;28;20463;-73
2022/05/30 05:37:35;;;;;;;17.47;8.10;;;8.70;89.00;;;;;;5040214;28;21018;-72
2022/05/30 05:40:01;;;;;;;12.70;7.37;;;8.70;89.00;;;;;;5042835;28;20514;-72
2022/05/30 05:42:26;;;;;;;11.90;7.80;;;8.80;89.00;;;;;;5048001;28;20478;-74
2022/05/30 05:44:52;;;;;;;11.13;7.60;;;8.80;88.90;;;;;;5058635;28;20834;-73
2022/05/30 05:47:18;;;;;;;12.30;7.87;;;8.90;88.40;;;;;;5046618;28;20288;-73
2022/05/30 05:49:44;;;;;;;13.00;7.60;;;8.90;88.10;;;;;;5045837;28;20925;-73
2022/05/30 05:52:09;;;;;;;10.93;6.97;;;9.00;87.70;;;;;;5040296;28;20192;-72
2022/05/30 05:54:36;;;;;;;14.67;7.60;;;9.00;87.60;;;;;;5041317;28;20209;-74
2022/05/30 05:57:02;;;;;;;13.23;7.50;;;9.10;87.60;;;;;;5045352;28;20730;-74
2022/05/30 05:59:28;;;;;;;10.23;7.73;;;9.20;87.30;;;;;;5044435;28;20416;-73
2022/05/30 06:01:53;;;;;;;15.27;7.97;;;9.20;87.30;;;;;;5039334;28;20462;-72
2022/05/30 06:04:19;;;;;;;13.03;8.20;;;9.30;86.80;;;;;;5040845;28;20662;-75
2022/05/30 06:06:45;;;;;;;14.07;7.73;;;9.30;86.60;;;;;;5049107;28;20184;-74
2022/05/30 06:09:11;;;;;;;11.27;7.90;;;9.40;86.00;;;;;;5041577;28;20181;-75
2022/05/30 06:11:36;;;;;;;12.27;8.30;;;9.20;86.20;;;;;;5041130;28;20196;-74
2022/05/30 06:14:02;;;;;;;11.53;7.13;;;9.30;86.20;;;;;;5041963;28;20930;-72
2022/05/30 06:16:30;;;;;;;11.03;7.50;;;9.30;86.20;;;;;;5044176;28;20205;-72
2022/05/30 06:18:59;;;;;;;10.40;7.13;;;9.50;85.60;;;;;;5042564;28;21000;-72
2022/05/30 06:21:27;;;;;;;15.53;8.07;;;9.50;84.90;;;;;;5042206;28;20472;-73
2022/05/30 06:23:54;;;;;;;15.73;9.47;;;9.60;85.20;;;;;;5040110;28;20434;-74
2022/05/30 06:26:20;;;;;;;15.07;7.80;;;9.60;85.20;;;;;;5037874;28;20823;-75
2022/05/30 06:28:46;;;;;;;14.63;8.07;;;9.70;85.20;;;;;;5038820;28;20415;-77
2022/05/30 06:31:18;;;;;;;13.83;7.50;;;9.80;84.90;;;;;;5042325;28;20476;-75
2022/05/30 06:33:45;;;;;;;11.50;8.00;;;9.90;84.60;;;;;;5036716;28;20439;-76
2022/05/30 06:36:13;;;;;;;11.63;7.67;;;10.00;84.30;;;;;;5042034;28;20530;-74
2022/05/30 06:38:40;;;;;;;18.87;8.97;;;10.10;83.80;;;;;;5039149;28;20428;-73
2022/05/30 06:41:10;;;;;;;11.23;8.73;;;10.20;83.60;;;;;;5044519;28;20466;-73
2022/05/30 06:43:36;;;;;;;15.70;9.40;;;10.30;83.40;;;;;;5037500;28;20424;-72
2022/05/30 06:46:02;;;;;;;17.63;9.87;;;10.40;82.80;;;;;;5048032;28;20483;-74
2022/05/30 06:48:29;;;;;;;17.03;9.20;;;10.40;82.70;;;;;;5039240;28;20443;-72
2022/05/30 06:50:55;;;;;;;13.77;8.77;;;10.50;82.20;;;;;;5050576;28;20415;-74
2022/05/30 06:53:20;;;;;;;14.40;8.43;;;10.60;82.20;;;;;;5046932;28;20999;-74
2022/05/30 06:55:49;;;;;;;13.40;8.80;;;10.70;81.90;;;;;;5046362;28;20976;-74
2022/05/30 06:58:16;;;;;;;19.60;9.10;;;10.80;81.70;;;;;;5045866;28;20196;-75
2022/05/30 07:00:47;;;;;;;11.40;7.90;;;10.80;81.20;;;;;;5040889;28;20420;-74
2022/05/30 07:03:14;;;;;;;15.07;9.00;;;10.80;81.10;;;;;;5042669;28;20454;-74
2022/05/30 07:05:43;;;;;;;14.00;7.40;;;10.90;80.80;;;;;;5043587;28;20451;-74
2022/05/30 07:08:09;;;;;;;13.37;7.73;;;10.90;80.20;;;;;;5042749;28;20423;-76
2022/05/30 07:10:39;;;;;;;14.00;8.50;;;11.00;79.30;;;;;;5039887;28;20426;-73
2022/05/30 07:13:06;;;;;;;15.20;8.33;;;11.00;79.30;;;;;;5037968;28;20423;-76
2022/05/30 07:15:35;;;;;;;12.67;8.77;;;11.10;79.60;;;;;;5042418;28;20901;-73
2022/05/30 07:18:16;;;;;;;11.77;7.70;;;11.20;78.90;;;;;;5038990;28;20498;-75
2022/05/30 07:20:42;;;;;;;13.87;7.70;;;11.20;78.60;;;;;;5035546;28;20423;-74
2022/05/30 07:23:08;;;;;;;14.10;8.30;;;11.30;78.60;;;;;;5034595;28;20430;-75
2022/05/30 07:25:35;;;;;;;10.33;7.13;;;11.40;78.30;;;;;;5036650;28;20213;-75
2022/05/30 07:28:03;;;;;;;17.57;8.17;;;11.50;77.60;;;;;;5044079;28;20189;-75
2022/05/30 07:30:28;;;;;;;10.70;6.80;;;11.60;76.80;;;;;;5037888;28;20424;-72
2022/05/30 07:32:55;;;;;;;9.13;6.97;;;11.60;76.20;;;;;;5044557;28;20994;-74
2022/05/30 07:35:21;;;;;;;8.90;5.80;;;11.70;75.40;;;;;;5032094;28;20907;-72
2022/05/30 07:37:48;;;;;;;11.87;7.03;;;11.80;75.10;;;;;;5042978;28;20407;-73
2022/05/30 07:40:14;;;;;;;10.77;6.50;;;11.90;75.10;;;;;;5042903;28;20921;-75
2022/05/30 07:42:41;;;;;;;9.57;6.37;;;11.90;75.10;;;;;;5039911;28;20466;-75
2022/05/30 07:45:08;;;;;;;8.20;6.33;;;12.00;74.50;;;;;;5035688;28;20876;-73
2022/05/30 07:47:34;;;;;;;9.40;6.30;;;12.00;73.90;;;;;;5039920;28;20450;-74
2022/05/30 07:50:02;;;;;;;10.80;5.93;;;12.10;74.50;;;;;;5048714;28;20411;-73
2022/05/30 07:52:32;;;;;;;9.43;5.40;;;12.10;74.00;;;;;;5045567;28;20257;-75
2022/05/30 07:54:59;;;;;;;6.57;5.10;;;12.20;73.30;;;;;;5034644;28;21005;-73
2022/05/30 08:00:12;;;;;;;10.10;4.30;;;12.30;72.30;;;;;;5039754;28;20417;-75
2022/05/30 08:02:41;;;;;;;8.90;5.17;;;12.40;71.10;;;;;;5042425;28;20833;-75
2022/05/30 08:05:10;;;;;;;7.50;4.60;;;12.40;72.00;;;;;;5036926;28;20454;-74
2022/05/30 08:07:36;;;;;;;11.80;4.47;;;12.40;71.70;;;;;;5042637;28;20426;-74
2022/05/30 08:10:04;;;;;;;4.37;3.00;;;12.50;71.40;;;;;;5043782;28;20434;-75
2022/05/30 08:12:31;;;;;;;6.10;3.47;;;12.60;68.80;;;;;;5033537;28;20775;-74
2022/05/30 08:14:58;;;;;;;5.13;3.60;;;12.50;68.80;;;;;;5038655;28;20474;-74
2022/05/30 08:17:24;;;;;;;6.73;4.50;;;12.60;68.30;;;;;;5039422;28;20944;-74
2022/05/30 08:19:50;;;;;;;8.33;4.70;;;12.70;66.90;;;;;;5038220;28;20431;-74
2022/05/30 08:22:16;;;;;;;9.20;4.53;;;12.80;68.30;;;;;;5032344;28;20208;-74
2022/05/30 08:24:50;;;;;;;9.70;4.23;;;12.90;68.00;;;;;;5043982;28;20822;-75
2022/05/30 08:27:16;;;;;;;4.90;4.27;;;12.90;68.30;;;;;;5048069;28;20472;-75
2022/05/30 08:29:42;;;;;;;7.40;4.00;;;13.00;67.70;;;;;;5043245;28;20423;-75
2022/05/30 08:32:09;;;;;;;5.27;3.23;;;13.10;66.90;;;;;;5044429;28;21325;-73
2022/05/30 08:34:36;;;;;;;6.47;3.50;;;13.30;65.80;;;;;;5037532;28;20303;-75
2022/05/30 08:37:03;;;;;;;8.50;3.70;;;13.40;64.70;;;;;;5048918;28;20433;-73
2022/05/30 08:42:13;;;;;;;4.70;3.70;;;13.30;64.20;;;;;;5042792;28;20504;-74
2022/05/30 08:44:40;;;;;;;6.17;3.13;;;13.50;63.10;;;;;;5041077;28;20459;-74
2022/05/30 08:47:44;;;;;;;6.13;3.33;;;13.60;62.00;;;;;;5037967;28;20450;-75
2022/05/30 08:50:13;;;;;;;9.10;3.90;;;13.70;62.50;;;;;;5039432;28;20460;-75
2022/05/30 08:53:16;;;;;;;5.03;3.00;;;13.90;61.70;;;;;;5041893;28;20446;-74
2022/05/30 08:55:57;;;;;;;4.90;3.10;;;14.00;61.00;;;;;;5037698;28;20453;-75
2022/05/30 08:58:56;;;;;;;4.87;3.00;;;14.00;58.00;;;;;;5037952;28;20506;-75
2022/05/30 09:01:34;;;;;;;5.50;2.33;;;14.00;59.20;;;;;;5045753;28;20463;-75
2022/05/30 09:04:21;;;;;;;4.83;2.60;;;14.00;56.00;;;;;;5041015;28;20473;-75
2022/05/30 09:06:56;;;;;;;6.03;2.80;;;14.10;56.40;;;;;;5043324;28;20436;-74
2022/05/30 09:09:50;;;;;;;6.00;2.50;;;14.20;56.90;;;;;;5045525;28;20492;-73
2022/05/30 09:12:22;;;;;;;5.60;2.80;;;14.40;56.50;;;;;;5039048;28;20802;-74
2022/05/30 09:14:58;;;;;;;4.13;2.37;;;14.40;55.60;;;;;;5042141;28;20450;-76
2022/05/30 09:17:41;;;;;;;3.40;2.20;;;14.50;54.10;;;;;;5038381;28;20409;-73
2022/05/30 09:20:12;;;;;;;6.50;3.20;;;14.60;54.90;;;;;;5045930;28;20419;-76
2022/05/30 09:22:39;;;;;;;7.37;2.53;;;14.60;55.60;;;;;;5038176;28;20471;-74
2022/05/30 09:27:50;;;;;;;3.97;2.27;;;14.40;52.90;;;;;;5043907;28;20477;-76
2022/05/30 09:30:24;;;;;;;4.40;2.90;;;14.50;52.90;;;;;;5047460;28;20864;-74
2022/05/30 09:33:24;;;;;;;3.73;2.50;;;14.70;54.10;;;;;;5037347;28;20717;-76
2022/05/30 09:36:08;;;;;;;2.97;2.03;;;14.80;52.60;;;;;;5044016;28;20452;-75
2022/05/30 09:38:45;;;;;;;5.70;3.07;;;14.90;53.00;;;;;;5040857;28;20865;-73
2022/05/30 09:41:25;;;;;;;8.20;2.17;;;15.10;52.90;;;;;;5037044;28;20494;-76
2022/05/30 09:44:16;;;;;;;4.83;2.10;;;15.40;48.10;;;;;;5041911;28;20482;-74
2022/05/30 09:46:58;;;;;;;3.63;2.33;;;15.40;48.60;;;;;;5042898;28;20435;-73
2022/05/30 09:49:36;;;;;;;5.50;2.70;;;15.50;49.10;;;;;;5041259;28;20923;-75
2022/05/30 09:52:19;;;;;;;4.70;2.10;;;15.60;48.30;;;;;;5045813;28;20416;-74
2022/05/30 09:54:45;;;;;;;5.83;2.00;;;15.70;46.20;;;;;;5041316;28;21011;-73
2022/05/30 09:57:23;;;;;;;4.53;2.30;;;15.80;46.20;;;;;;5049165;28;20921;-73
2022/05/30 09:59:52;;;;;;;4.53;2.30;;;15.80;47.10;;;;;;5039788;28;20283;-74
2022/05/30 10:02:33;;;;;;;7.73;2.10;;;15.80;47.30;;;;;;5039667;28;20468;-74
2022/05/30 10:05:29;;;;;;;3.43;1.67;;;15.70;44.10;;;;;;5034001;28;20967;-73
2022/05/30 10:07:57;;;;;;;4.07;2.13;;;15.80;44.50;;;;;;5044324;28;20426;-73
2022/05/30 10:10:25;;;;;;;9.57;2.37;;;16.20;44.20;;;;;;5050129;28;20415;-72
2022/05/30 10:12:59;;;;;;;5.40;2.80;;;16.40;42.70;;;;;;5039291;28;20861;-73
2022/05/30 10:15:31;;;;;;;7.70;2.67;;;16.80;41.00;;;;;;5042075;28;20466;-74
2022/05/30 10:18:11;;;;;;;2.57;1.80;;;17.10;41.00;;;;;;5053964;28;20430;-74
2022/05/30 10:21:07;;;;;;;2.73;1.97;;;17.70;40.20;;;;;;5044882;28;20916;-73
2022/05/30 10:30:04;;;;;;;5.93;1.93;;;18.70;39.50;;;;;;5041431;28;20905;-73
2022/05/30 10:32:51;;;;;;;2.60;1.83;;;18.60;37.90;;;;;;5044957;28;20513;-74
2022/05/30 10:35:32;;;;;;;3.57;1.70;;;18.10;38.60;;;;;;5043426;28;20456;-73
2022/05/30 10:38:28;;;;;;;2.70;1.87;;;18.10;38.70;;;;;;5040194;28;20416;-75
2022/05/30 10:41:06;;;;;;;2.70;1.70;;;18.00;37.40;;;;;;5045330;28;20925;-74
2022/05/30 10:43:56;;;;;;;2.20;2.00;;;17.70;38.00;;;;;;5047991;28;20434;-73
2022/05/30 10:46:37;;;;;;;3.60;1.90;;;17.70;36.40;;;;;;5050086;28;21340;-72
2022/05/30 10:49:09;;;;;;;5.00;2.70;;;17.40;36.80;;;;;;5050005;28;20438;-72
2022/05/30 10:52:04;;;;;;;5.60;2.40;;;17.40;37.40;;;;;;5036681;28;20422;-73
2022/05/30 10:54:36;;;;;;;4.23;2.60;;;17.60;36.70;;;;;;5043377;28;20490;-73
2022/05/30 10:57:36;;;;;;;4.17;2.33;;;17.80;35.10;;;;;;5048103;28;20415;-74
2022/05/30 11:00:11;;;;;;;4.77;2.63;;;18.00;34.90;;;;;;5056320;28;20432;-73
2022/05/30 11:03:11;;;;;;;4.30;1.70;;;18.30;35.60;;;;;;5059222;28;20532;-72
2022/05/30 11:06:03;;;;;;;5.23;1.90;;;18.40;35.30;;;;;;5046354;28;20988;-73
2022/05/30 11:08:53;;;;;;;9.53;1.90;;;19.00;34.70;;;;;;5047050;28;20842;-74
2022/05/30 11:11:32;;;;;;;4.10;2.17;;;19.30;32.90;;;;;;5039780;28;20416;-75
2022/05/30 11:14:15;;;;;;;5.67;3.33;;;19.30;33.90;;;;;;5038640;28;20437;-73
2022/05/30 11:17:02;;;;;;;4.57;2.00;;;18.90;34.30;;;;;;5037656;28;20451;-73
2022/05/30 11:19:28;;;;;;;2.97;2.30;;;18.70;34.80;;;;;;5041170;28;20433;-73
2022/05/30 11:22:11;;;;;;;3.13;2.47;;;18.50;36.40;;;;;;5041455;28;20973;-75
2022/05/30 11:24:39;;;;;;;2.90;1.90;;;18.40;36.70;;;;;;5034669;28;20236;-76
2022/05/30 11:27:19;;;;;;;3.20;2.50;;;18.50;36.70;;;;;;5043973;28;20804;-74
2022/05/30 11:29:53;;;;;;;2.90;1.90;;;19.00;36.80;;;;;;5039348;28;20435;-75
2022/05/30 11:32:28;;;;;;;3.13;2.30;;;19.40;35.90;;;;;;5044652;28;20422;-74
2022/05/30 11:35:05;;;;;;;3.00;2.03;;;19.40;34.70;;;;;;5036772;28;20448;-74
2022/05/30 11:37:40;;;;;;;4.60;2.03;;;18.90;35.50;;;;;;5038935;28;20877;-74
2022/05/30 11:40:25;;;;;;;4.60;2.20;;;18.70;36.20;;;;;;5034439;28;20475;-74
2022/05/30 11:43:04;;;;;;;6.27;3.50;;;18.50;36.40;;;;;;5041432;28;20463;-75
2022/05/30 11:45:53;;;;;;;7.90;3.57;;;18.20;36.40;;;;;;5046429;28;20457;-76
2022/05/30 11:48:43;;;;;;;4.00;2.40;;;18.20;35.90;;;;;;5045682;28;20516;-74
2022/05/30 11:51:32;;;;;;;4.27;3.00;;;18.00;35.70;;;;;;5039133;28;20872;-73
2022/05/30 11:54:13;;;;;;;5.40;2.47;;;18.10;35.70;;;;;;5044445;28;20930;-72
2022/05/30 11:57:12;;;;;;;4.17;3.20;;;18.00;36.40;;;;;;5046530;28;20436;-75
2022/05/30 11:59:47;;;;;;;3.03;1.80;;;18.20;35.90;;;;;;5044907;28;21003;-75
2022/05/30 12:02:25;;;;;;;2.23;1.87;;;18.30;35.90;;;;;;5042816;28;20486;-76
2022/05/30 12:04:51;;;;;;;2.53;1.93;;;18.80;35.60;;;;;;5044113;28;20462;-75
2022/05/30 12:07:29;;;;;;;3.90;1.80;;;19.40;33.30;;;;;;5038764;28;20504;-73
2022/05/30 12:10:05;;;;;;;4.50;1.90;;;19.60;32.40;;;;;;5045925;28;20190;-75
2022/05/30 12:12:37;;;;;;;2.80;1.80;;;18.60;33.70;;;;;;5036021;28;20945;-74
2022/05/30 12:15:21;;;;;;;3.77;2.00;;;18.40;34.70;;;;;;5037803;28;20831;-73
2022/05/30 12:24:28;;;;;;;3.20;1.90;;;18.30;35.60;;;;;;5039185;28;20423;-74
2022/05/30 12:27:08;;;;;;;3.33;2.13;;;17.70;36.60;;;;;;5039697;28;20438;-75
2022/05/30 12:29:37;;;;;;;3.13;2.20;;;17.80;36.40;;;;;;5037336;28;20418;-75
2022/05/30 12:32:21;;;;;;;5.30;2.07;;;17.90;36.20;;;;;;5036000;28;20424;-75
2022/05/30 12:35:21;;;;;;;4.27;2.13;;;18.10;35.70;;;;;;5035969;28;20452;-75
2022/05/30 12:37:59;;;;;;;2.93;2.03;;;18.50;35.20;;;;;;5043444;28;20435;-73
2022/05/30 12:40:27;;;;;;;3.23;2.03;;;19.10;35.20;;;;;;5032547;28;20431;-72
2022/05/30 12:43:32;;;;;;;2.60;1.90;;;20.10;32.40;;;;;;5041384;28;20614;-74
2022/05/30 12:45:58;;;;;;;3.07;2.10;;;20.80;30.50;;;;;;5040497;28;20447;-73
2022/05/30 12:48:43;;;;;;;3.83;2.03;;;21.20;30.50;;;;;;5039106;28;20429;-75
2022/05/30 12:51:15;;;;;;;6.30;2.43;;;21.20;30.70;;;;;;5039480;28;20255;-75
2022/05/30 12:53:58;;;;;;;2.97;1.97;;;22.10;29.30;;;;;;5039804;28;20432;-75
2022/05/30 12:57:00;;;;;;;3.70;2.47;;;21.40;29.80;;;;;;5038447;28;20456;-75
2022/05/30 12:59:33;;;;;;;4.17;2.93;;;22.00;29.50;;;;;;5045940;28;20441;-74
2022/05/30 13:02:01;;;;;;;14.37;3.50;;;21.80;29.30;;;;;;5045481;28;20535;-73
2022/05/30 13:04:35;;;;;;;6.10;2.33;;;20.60;30.70;;;;;;5043342;28;20497;-74
2022/05/30 13:07:04;;;;;;;6.17;2.87;;;20.60;31.10;;;;;;5043492;28;20459;-73
2022/05/30 13:09:41;;;;;;;4.00;2.60;;;20.20;31.30;;;;;;5040969;28;20582;-75
2022/05/30 13:12:12;;;;;;;2.97;2.27;;;20.30;30.80;;;;;;5040421;28;20428;-74
2022/05/30 13:14:40;;;;;;;3.00;2.33;;;19.80;31.50;;;;;;5040032;28;22519;-77
2022/05/30 13:17:18;;;;;;;3.63;2.40;;;20.80;30.40;;;;;;5044136;28;20488;-74
2022/05/30 13:20:08;;;;;;;7.73;3.60;;;21.60;29.30;;;;;;5050387;28;20907;-73
2022/05/30 13:22:42;;;;;;;4.33;2.73;;;21.30;29.10;;;;;;5043122;28;20568;-75
2022/05/30 13:25:15;;;;;;;2.93;2.23;;;20.60;29.40;;;;;;5028962;28;20518;-75
2022/05/30 13:27:44;;;;;;;4.13;2.03;;;21.30;29.50;;;;;;5050707;28;20430;-75
2022/05/30 13:30:29;;;;;;;4.83;3.50;;;22.30;28.70;;;;;;5046144;28;20435;-73
2022/05/30 13:32:55;;;;;;;3.10;2.30;;;22.40;27.40;;;;;;5047870;28;20516;-74
2022/05/30 13:35:30;;;;;;;4.17;2.53;;;22.00;28.50;;;;;;5042130;28;20506;-75
2022/05/30 13:38:03;;;;;;;4.70;2.60;;;22.50;27.70;;;;;;5041063;28;20544;-75
2022/05/30 13:40:32;;;;;;;4.10;2.73;;;22.20;27.60;;;;;;5036598;28;20454;-70
2022/05/30 13:43:01;;;;;;;2.90;2.00;;;21.60;28.30;;;;;;5047515;28;20518;-75